Orr, North Dakota
Current Conditions -  °F | °C
As of 2:58 PM on Thursday 27 Nov 2014 (Local Time) from KRDR Reporting Station
Broken Clouds Broken Clouds  
Wind Chill: -23°   Ceiling: 12000
Heat Index: -15°   Visibility: 10mi
Dew Point: -20°   Wind: 12mph
Humidity: 66%   Direction: 190°S
Pressure: 30.31"   Gusts: NA
Location:  48.1078°N, 97.7089°W
Report Text: KRDR 272058Z AUTO 19010KT 10SM BKN120 M15/M20 A3031 RMK AO2 SLP298 60000 T11461196 57034
Loading
Personal Weather Stations






























Interactive Weather Map New forecast layout! Learn more

10-Day Weather Forecast

Advertisements
Track Severe Weather on mobile